Time;durP1;ratioP1;P1;durP2;ratioP2;P2;SDS_P1;SDS_P2;PMS_P1;PMS_P2;Temp;Humidity;BMP_temperature;BMP_pressure;BME280_temperature;BME280_humidity;BME280_pressure;Samples;Min_cycle;Max_cycle;Signal;HPM_P1;HPM_P2
2022/08/29 00:01:19;;;;;;;;;;;;;;;;;;5110152;27;19912;-76
2022/08/29 00:04:06;;;;;;;;;;;;;;;;;;5112707;27;19915;-77
2022/08/29 00:06:53;;;;;;;;;;;;;;;;;;5107936;27;19911;-76
2022/08/29 00:09:39;;;;;;;;;;;;;;;;;;5107229;27;19914;-76
2022/08/29 00:12:26;;;;;;;;;;;;;;;;;;5107910;28;19912;-75
2022/08/29 00:15:13;;;;;;;;;;;;;;;;;;5110871;28;19923;-75
2022/08/29 00:17:59;;;;;;;;;;;;;;;;;;5107643;28;19912;-74
2022/08/29 00:20:46;;;;;;;;;;;;;;;;;;5116714;27;19915;-75
2022/08/29 00:23:32;;;;;;;;;;;;;;;;;;5113039;27;20312;-76
2022/08/29 00:26:19;;;;;;;;;;;;;;;;;;5110112;28;19931;-76
2022/08/29 00:29:05;;;;;;;;;;;;;;;;;;5096219;27;19922;-75
2022/08/29 00:31:52;;;;;;;;;;;;;;;;;;5110179;28;19918;-75
2022/08/29 00:34:39;;;;;;;;;;;;;;;;;;5100791;28;19908;-76
2022/08/29 00:37:25;;;;;;;;;;;;;;;;;;5115509;27;20290;-76
2022/08/29 00:40:11;;;;;;;;;;;;;;;;;;5112413;27;19941;-76
2022/08/29 00:42:58;;;;;;;;;;;;;;;;;;5110978;27;19934;-75
2022/08/29 00:45:44;;;;;;;;;;;;;;;;;;5113108;27;19928;-77
2022/08/29 00:48:31;;;;;;;;;;;;;;;;;;5110324;28;19912;-76
2022/08/29 00:51:17;;;;;;;;;;;;;;;;;;5114855;27;19916;-76
2022/08/29 00:54:04;;;;;;;;;;;;;;;;;;5109359;27;19934;-75
2022/08/29 00:56:50;;;;;;;;;;;;;;;;;;5109578;27;19986;-77
2022/08/29 00:59:37;;;;;;;;;;;;;;;;;;5120797;27;19922;-74
2022/08/29 01:02:23;;;;;;;;;;;;;;;;;;5109113;27;19935;-75
2022/08/29 01:05:10;;;;;;;;;;;;;;;;;;5110154;27;20398;-76
2022/08/29 01:07:56;;;;;;;;;;;;;;;;;;5111300;27;19923;-78
2022/08/29 01:13:50;;;;;;;;;;;;;;;;;;5103560;28;19911;-75
2022/08/29 01:16:37;;;;;;;;;;;;;;;;;;5109315;27;20436;-76
2022/08/29 01:19:23;;;;;;;;;;;;;;;;;;5109824;28;20300;-75
2022/08/29 01:22:10;;;;;;;;;;;;;;;;;;5105708;27;19915;-75
2022/08/29 01:24:56;;;;;;;;;;;;;;;;;;5107203;28;19930;-76
2022/08/29 01:27:43;;;;;;;;;;;;;;;;;;5092665;27;19916;-76
2022/08/29 01:30:29;;;;;;;;;;;;;;;;;;5099748;27;19915;-75
2022/08/29 01:33:16;;;;;;;;;;;;;;;;;;5094443;28;20298;-75
2022/08/29 01:36:02;;;;;;;;;;;;;;;;;;5121456;27;19912;-75
2022/08/29 01:38:49;;;;;;;;;;;;;;;;;;5108514;27;20346;-77
2022/08/29 01:41:35;;;;;;;;;;;;;;;;;;5117053;27;19908;-76
2022/08/29 01:44:22;;;;;;;;;;;;;;;;;;5115651;27;20245;-76
2022/08/29 01:47:08;;;;;;;;;;;;;;;;;;5113106;27;19912;-76
2022/08/29 01:49:54;;;;;;;;;;;;;;;;;;5110207;27;19916;-77
2022/08/29 01:52:41;;;;;;;;;;;;;;;;;;5121032;27;19934;-76
2022/08/29 01:55:28;;;;;;;;;;;;;;;;;;5108412;27;19926;-76
2022/08/29 01:58:15;;;;;;;;;;;;;;;;;;5103674;27;19918;-76
2022/08/29 02:01:01;;;;;;;;;;;;;;;;;;5109182;27;20343;-76
2022/08/29 02:03:48;;;;;;;;;;;;;;;;;;5108226;27;19919;-77
2022/08/29 02:06:34;;;;;;;;;;;;;;;;;;5113435;27;19942;-76
2022/08/29 02:09:21;;;;;;;;;;;;;;;;;;5104418;27;19916;-76
2022/08/29 02:12:07;;;;;;;;;;;;;;;;;;5098925;28;19908;-76
2022/08/29 02:14:54;;;;;;;;;;;;;;;;;;5108411;28;20291;-76
2022/08/29 02:17:41;;;;;;;;;;;;;;;;;;5110594;27;19929;-76
2022/08/29 02:20:27;;;;;;;;;;;;;;;;;;5108297;28;19915;-75
2022/08/29 02:23:14;;;;;;;;;;;;;;;;;;5110665;27;19911;-75
2022/08/29 02:26:00;;;;;;;;;;;;;;;;;;5107777;28;20407;-75
2022/08/29 02:28:48;;;;;;;;;;;;;;;;;;5111277;27;19916;-74
2022/08/29 02:31:37;;;;;;;;;;;;;;;;;;5077565;28;19931;-75
2022/08/29 02:34:24;;;;;;;;;;;;;;;;;;5087996;28;20355;-76
2022/08/29 02:37:10;;;;;;;;;;;;;;;;;;5096799;28;20006;-77
2022/08/29 02:39:56;;;;;;;;;;;;;;;;;;5089778;28;19920;-75
2022/08/29 02:42:43;;;;;;;;;;;;;;;;;;5089259;28;19927;-75
2022/08/29 02:45:29;;;;;;;;;;;;;;;;;;5089688;28;19927;-75
2022/08/29 02:48:16;;;;;;;;;;;;;;;;;;5087508;28;19912;-75
2022/08/29 02:51:03;;;;;;;;;;;;;;;;;;5090551;28;19919;-74
2022/08/29 02:53:49;;;;;;;;;;;;;;;;;;5079306;28;20268;-75
2022/08/29 02:56:36;;;;;;;;;;;;;;;;;;5097739;28;19922;-75
2022/08/29 02:59:22;;;;;;;;;;;;;;;;;;5093204;28;19908;-75
2022/08/29 03:02:09;;;;;;;;;;;;;;;;;;5099476;28;19915;-76
2022/08/29 03:04:56;;;;;;;;;;;;;;;;;;5107834;28;19931;-75
2022/08/29 03:07:43;;;;;;;;;;;;;;;;;;5114682;28;20228;-75
2022/08/29 03:10:29;;;;;;;;;;;;;;;;;;5106162;28;19912;-75
2022/08/29 03:13:16;;;;;;;;;;;;;;;;;;5106118;28;19912;-75
2022/08/29 03:16:02;;;;;;;;;;;;;;;;;;5118254;28;19927;-74
2022/08/29 03:18:49;;;;;;;;;;;;;;;;;;5106996;28;19912;-74
2022/08/29 03:21:35;;;;;;;;;;;;;;;;;;5110466;28;19926;-75
2022/08/29 03:24:22;;;;;;;;;;;;;;;;;;5109199;27;20276;-75
2022/08/29 03:27:08;;;;;;;;;;;;;;;;;;5109875;27;19919;-75
2022/08/29 03:29:55;;;;;;;;;;;;;;;;;;5111923;27;20404;-76
2022/08/29 03:32:41;;;;;;;;;;;;;;;;;;5112694;27;19919;-76
2022/08/29 03:35:27;;;;;;;;;;;;;;;;;;5115658;27;19920;-76
2022/08/29 03:38:14;;;;;;;;;;;;;;;;;;5094267;27;19920;-75
2022/08/29 03:41:00;;;;;;;;;;;;;;;;;;5109750;28;20402;-76
2022/08/29 03:43:47;;;;;;;;;;;;;;;;;;5112956;27;19916;-76
2022/08/29 03:46:35;;;;;;;;;;;;;;;;;;5111330;27;20276;-76
2022/08/29 03:49:21;;;;;;;;;;;;;;;;;;5112577;27;19918;-76
2022/08/29 03:52:08;;;;;;;;;;;;;;;;;;5107599;27;19959;-76
2022/08/29 03:54:54;;;;;;;;;;;;;;;;;;5111629;27;19918;-76
2022/08/29 03:57:41;;;;;;;;;;;;;;;;;;5115788;27;19912;-76
2022/08/29 04:00:28;;;;;;;;;;;;;;;;;;5110303;27;19914;-79
2022/08/29 04:03:14;;;;;;;;;;;;;;;;;;5120947;27;20347;-77
2022/08/29 04:06:01;;;;;;;;;;;;;;;;;;5097805;28;19923;-77
2022/08/29 04:08:48;;;;;;;;;;;;;;;;;;5107742;27;19915;-77
2022/08/29 04:11:34;;;;;;;;;;;;;;;;;;5108862;28;19935;-77
2022/08/29 04:14:21;;;;;;;;;;;;;;;;;;5105122;28;19912;-77
2022/08/29 04:17:09;;;;;;;;;;;;;;;;;;5108505;28;20457;-77
2022/08/29 04:19:55;;;;;;;;;;;;;;;;;;5100452;28;19915;-76
2022/08/29 04:22:43;;;;;;;;;;;;;;;;;;5109649;27;19908;-77
2022/08/29 04:25:35;;;;;;;;;;;;;;;;;;5095118;27;20280;-77
2022/08/29 04:28:22;;;;;;;;;;;;;;;;;;5102757;28;19914;-77
2022/08/29 04:31:08;;;;;;;;;;;;;;;;;;5109038;28;19915;-78
2022/08/29 04:33:55;;;;;;;;;;;;;;;;;;5094721;28;19934;-78
2022/08/29 04:36:44;;;;;;;;;;;;;;;;;;5093904;28;20257;-77
2022/08/29 04:39:30;;;;;;;;;;;;;;;;;;5107031;28;19926;-78
2022/08/29 04:42:18;;;;;;;;;;;;;;;;;;5108862;28;19916;-78
2022/08/29 04:45:05;;;;;;;;;;;;;;;;;;5112070;27;19923;-78
2022/08/29 04:47:51;;;;;;;;;;;;;;;;;;5110065;27;20334;-77
2022/08/29 04:50:38;;;;;;;;;;;;;;;;;;5116606;27;19934;-77
2022/08/29 04:53:24;;;;;;;;;;;;;;;;;;5107184;27;19922;-77
2022/08/29 04:56:11;;;;;;;;;;;;;;;;;;5106560;28;19911;-77
2022/08/29 04:58:57;;;;;;;;;;;;;;;;;;5093575;28;19916;-77
2022/08/29 05:01:44;;;;;;;;;;;;;;;;;;5108547;27;19912;-78
2022/08/29 05:04:30;;;;;;;;;;;;;;;;;;5092791;28;20290;-77
2022/08/29 05:07:19;;;;;;;;;;;;;;;;;;5113312;27;19922;-76
2022/08/29 05:10:06;;;;;;;;;;;;;;;;;;5092823;28;19924;-76
2022/08/29 05:12:52;;;;;;;;;;;;;;;;;;5109037;28;20355;-77
2022/08/29 05:15:39;;;;;;;;;;;;;;;;;;5107988;28;19930;-77
2022/08/29 05:18:25;;;;;;;;;;;;;;;;;;5107454;28;20334;-77
2022/08/29 05:21:12;;;;;;;;;;;;;;;;;;5108809;28;19914;-77
2022/08/29 05:23:58;;;;;;;;;;;;;;;;;;5108991;27;19919;-77
2022/08/29 05:26:45;;;;;;;;;;;;;;;;;;5104016;28;19916;-78
2022/08/29 05:29:31;;;;;;;;;;;;;;;;;;5108066;28;19947;-77
2022/08/29 05:32:19;;;;;;;;;;;;;;;;;;5078808;28;19919;-77
2022/08/29 05:35:06;;;;;;;;;;;;;;;;;;5103107;28;19916;-77
2022/08/29 05:37:52;;;;;;;;;;;;;;;;;;5107157;27;19934;-77
2022/08/29 05:40:39;;;;;;;;;;;;;;;;;;5107784;27;20260;-78
2022/08/29 05:43:25;;;;;;;;;;;;;;;;;;5109777;27;20478;-77
2022/08/29 05:46:12;;;;;;;;;;;;;;;;;;5108945;28;19920;-77
2022/08/29 05:48:58;;;;;;;;;;;;;;;;;;5120181;27;20291;-77
2022/08/29 05:51:45;;;;;;;;;;;;;;;;;;5092875;28;19919;-77
2022/08/29 05:54:31;;;;;;;;;;;;;;;;;;5107388;28;19912;-77
2022/08/29 05:57:18;;;;;;;;;;;;;;;;;;5103100;28;20271;-76
2022/08/29 06:00:05;;;;;;;;;;;;;;;;;;5105817;28;19922;-77
2022/08/29 06:02:53;;;;;;;;;;;;;;;;;;5106857;28;19918;-77
2022/08/29 06:05:40;;;;;;;;;;;;;;;;;;5103709;28;19923;-77
2022/08/29 06:08:26;;;;;;;;;;;;;;;;;;5106933;28;20001;-77
2022/08/29 06:11:12;;;;;;;;;;;;;;;;;;5107370;28;19914;-76
2022/08/29 06:13:59;;;;;;;;;;;;;;;;;;5100156;27;19916;-77
2022/08/29 06:16:45;;;;;;;;;;;;;;;;;;5105618;28;19939;-77
2022/08/29 06:19:33;;;;;;;;;;;;;;;;;;5107018;28;19912;-78
2022/08/29 06:22:22;;;;;;;;;;;;;;;;;;5091659;28;20493;-78
2022/08/29 06:25:08;;;;;;;;;;;;;;;;;;5107043;28;19981;-78
2022/08/29 06:27:55;;;;;;;;;;;;;;;;;;5106372;28;19912;-77
2022/08/29 06:30:41;;;;;;;;;;;;;;;;;;5106595;27;20410;-77
2022/08/29 06:33:27;;;;;;;;;;;;;;;;;;5113650;27;19919;-76
2022/08/29 06:36:14;;;;;;;;;;;;;;;;;;5110259;27;19923;-78
2022/08/29 06:39:00;;;;;;;;;;;;;;;;;;5107623;27;19908;-77
2022/08/29 06:41:47;;;;;;;;;;;;;;;;;;5089864;28;19920;-79
2022/08/29 06:44:33;;;;;;;;;;;;;;;;;;5080633;28;19918;-77
2022/08/29 06:47:20;;;;;;;;;;;;;;;;;;5080467;28;19939;-76
2022/08/29 06:50:06;;;;;;;;;;;;;;;;;;5086326;28;20316;-76
2022/08/29 06:52:53;;;;;;;;;;;;;;;;;;5091734;28;19915;-76
2022/08/29 06:55:39;;;;;;;;;;;;;;;;;;5086138;28;20340;-76
2022/08/29 06:58:26;;;;;;;;;;;;;;;;;;5076697;28;19912;-76
2022/08/29 07:01:12;;;;;;;;;;;;;;;;;;5090944;28;19912;-76
2022/08/29 07:03:59;;;;;;;;;;;;;;;;;;5081157;28;20385;-76
2022/08/29 07:06:45;;;;;;;;;;;;;;;;;;5088087;28;19934;-77
2022/08/29 07:09:32;;;;;;;;;;;;;;;;;;5073368;28;20360;-76
2022/08/29 07:12:19;;;;;;;;;;;;;;;;;;5072084;28;19909;-76
2022/08/29 07:15:05;;;;;;;;;;;;;;;;;;5084058;28;19916;-76
2022/08/29 07:17:52;;;;;;;;;;;;;;;;;;5087321;28;19912;-76
2022/08/29 07:20:38;;;;;;;;;;;;;;;;;;5087222;28;19916;-75
2022/08/29 07:23:25;;;;;;;;;;;;;;;;;;5087681;28;19919;-76
2022/08/29 07:26:11;;;;;;;;;;;;;;;;;;5087539;28;19948;-76
2022/08/29 07:28:58;;;;;;;;;;;;;;;;;;5091308;28;19920;-76
2022/08/29 07:31:44;;;;;;;;;;;;;;;;;;5094161;28;19916;-76
2022/08/29 07:34:31;;;;;;;;;;;;;;;;;;5095264;28;19919;-76
2022/08/29 07:37:17;;;;;;;;;;;;;;;;;;5092063;28;20291;-76
2022/08/29 07:40:04;;;;;;;;;;;;;;;;;;5088413;28;19919;-76
2022/08/29 07:42:50;;;;;;;;;;;;;;;;;;5087045;28;20665;-76
2022/08/29 07:45:37;;;;;;;;;;;;;;;;;;5072557;28;19934;-76
2022/08/29 07:48:23;;;;;;;;;;;;;;;;;;5087050;28;19908;-76
2022/08/29 07:51:10;;;;;;;;;;;;;;;;;;5074671;28;20367;-76
2022/08/29 07:53:56;;;;;;;;;;;;;;;;;;5086020;28;19916;-77
2022/08/29 07:56:43;;;;;;;;;;;;;;;;;;5085117;28;19922;-76
2022/08/29 07:59:29;;;;;;;;;;;;;;;;;;5081765;28;20304;-75
2022/08/29 08:02:15;;;;;;;;;;;;;;;;;;5091399;28;20140;-75
2022/08/29 08:05:02;;;;;;;;;;;;;;;;;;5091939;28;19920;-77
2022/08/29 08:07:48;;;;;;;;;;;;;;;;;;5082558;28;19912;-75
2022/08/29 08:10:35;;;;;;;;;;;;;;;;;;5085000;28;19920;-75
2022/08/29 08:13:21;;;;;;;;;;;;;;;;;;5082514;28;19999;-77
2022/08/29 08:16:08;;;;;;;;;;;;;;;;;;5091752;28;19935;-77
2022/08/29 08:18:54;;;;;;;;;;;;;;;;;;5091017;28;19912;-77
2022/08/29 08:21:42;;;;;;;;;;;;;;;;;;5098920;28;19919;-78
2022/08/29 08:24:28;;;;;;;;;;;;;;;;;;5083707;28;19918;-76
2022/08/29 08:27:15;;;;;;;;;;;;;;;;;;5091755;28;20516;-77
2022/08/29 08:30:02;;;;;;;;;;;;;;;;;;5099226;28;19912;-77
2022/08/29 08:32:49;;;;;;;;;;;;;;;;;;5081438;28;19918;-77
2022/08/29 08:35:35;;;;;;;;;;;;;;;;;;5092701;28;19943;-77
2022/08/29 08:38:22;;;;;;;;;;;;;;;;;;5089072;28;19916;-76
2022/08/29 08:41:09;;;;;;;;;;;;;;;;;;5091555;28;20292;-76
2022/08/29 08:43:56;;;;;;;;;;;;;;;;;;5094557;28;19914;-75
2022/08/29 08:46:42;;;;;;;;;;;;;;;;;;5093415;28;20443;-76
2022/08/29 08:49:28;;;;;;;;;;;;;;;;;;5092408;28;19912;-76
2022/08/29 08:52:15;;;;;;;;;;;;;;;;;;5082517;28;20477;-75
2022/08/29 08:55:01;;;;;;;;;;;;;;;;;;5090174;28;19915;-76
2022/08/29 08:57:48;;;;;;;;;;;;;;;;;;5090277;28;19920;-75
2022/08/29 09:00:35;;;;;;;;;;;;;;;;;;5080577;28;19918;-76
2022/08/29 09:03:21;;;;;;;;;;;;;;;;;;5069594;28;19908;-76
2022/08/29 09:06:09;;;;;;;;;;;;;;;;;;5092949;28;19923;-76
2022/08/29 09:08:55;;;;;;;;;;;;;;;;;;5089112;28;20588;-76
2022/08/29 09:11:42;;;;;;;;;;;;;;;;;;5089361;28;19912;-75
2022/08/29 09:14:28;;;;;;;;;;;;;;;;;;5088904;28;20386;-75
2022/08/29 09:17:15;;;;;;;;;;;;;;;;;;5087677;28;20439;-76
2022/08/29 09:20:01;;;;;;;;;;;;;;;;;;5093450;28;19916;-76
2022/08/29 09:22:48;;;;;;;;;;;;;;;;;;5074891;28;20466;-76
2022/08/29 09:25:35;;;;;;;;;;;;;;;;;;5102364;28;20039;-77
2022/08/29 09:28:21;;;;;;;;;;;;;;;;;;5090771;28;19908;-76
2022/08/29 09:31:08;;;;;;;;;;;;;;;;;;5088129;28;19908;-76
2022/08/29 09:33:54;;;;;;;;;;;;;;;;;;5088335;28;19919;-76
2022/08/29 09:36:41;;;;;;;;;;;;;;;;;;5089053;28;19912;-76
2022/08/29 09:39:27;;;;;;;;;;;;;;;;;;5088848;28;19919;-75
2022/08/29 09:42:16;;;;;;;;;;;;;;;;;;5077144;28;20007;-77
2022/08/29 09:45:02;;;;;;;;;;;;;;;;;;5086132;28;19924;-77
2022/08/29 09:47:49;;;;;;;;;;;;;;;;;;5087165;28;21078;-77
2022/08/29 09:50:35;;;;;;;;;;;;;;;;;;5071252;28;20561;-77
2022/08/29 09:53:22;;;;;;;;;;;;;;;;;;5087961;28;19915;-77
2022/08/29 09:56:08;;;;;;;;;;;;;;;;;;5088157;28;19923;-76
2022/08/29 09:58:55;;;;;;;;;;;;;;;;;;5078026;28;19916;-76
2022/08/29 10:01:41;;;;;;;;;;;;;;;;;;5087075;28;19916;-77
2022/08/29 10:04:28;;;;;;;;;;;;;;;;;;5076156;28;19912;-75
2022/08/29 10:07:14;;;;;;;;;;;;;;;;;;5089388;28;19916;-77
2022/08/29 10:10:01;;;;;;;;;;;;;;;;;;5082032;28;19923;-75
2022/08/29 10:12:47;;;;;;;;;;;;;;;;;;5080998;28;19913;-76
2022/08/29 10:15:34;;;;;;;;;;;;;;;;;;5083106;28;19931;-76
2022/08/29 10:18:22;;;;;;;;;;;;;;;;;;5068543;28;19912;-76
2022/08/29 10:21:09;;;;;;;;;;;;;;;;;;5100496;28;19914;-76
2022/08/29 10:23:56;;;;;;;;;;;;;;;;;;5086984;28;19915;-76
2022/08/29 10:26:42;;;;;;;;;;;;;;;;;;5100391;28;19923;-76
2022/08/29 10:29:29;;;;;;;;;;;;;;;;;;5092511;28;20300;-76
2022/08/29 10:32:15;;;;;;;;;;;;;;;;;;5087439;28;19917;-76
2022/08/29 10:35:02;;;;;;;;;;;;;;;;;;5087201;28;20419;-77
2022/08/29 10:37:48;;;;;;;;;;;;;;;;;;5085934;28;19919;-76
2022/08/29 10:40:35;;;;;;;;;;;;;;;;;;5070034;28;19999;-76
2022/08/29 10:43:21;;;;;;;;;;;;;;;;;;5083146;28;19916;-75
2022/08/29 10:46:08;;;;;;;;;;;;;;;;;;5090614;28;19934;-78
2022/08/29 10:48:54;;;;;;;;;;;;;;;;;;5071988;28;19908;-76
2022/08/29 10:51:41;;;;;;;;;;;;;;;;;;5089209;28;19913;-77
2022/08/29 10:54:27;;;;;;;;;;;;;;;;;;5089352;28;19916;-77
2022/08/29 10:57:13;;;;;;;;;;;;;;;;;;5089958;28;19919;-78
2022/08/29 11:00:00;;;;;;;;;;;;;;;;;;5087402;28;19942;-77
2022/08/29 11:02:46;;;;;;;;;;;;;;;;;;5080786;28;19918;-76
2022/08/29 11:05:33;;;;;;;;;;;;;;;;;;5101533;28;19923;-77
2022/08/29 11:08:19;;;;;;;;;;;;;;;;;;5087212;28;19912;-77
2022/08/29 11:11:06;;;;;;;;;;;;;;;;;;5087831;28;19912;-77
2022/08/29 11:13:52;;;;;;;;;;;;;;;;;;5088029;28;19908;-76
2022/08/29 11:16:39;;;;;;;;;;;;;;;;;;5093531;28;19920;-77
2022/08/29 11:19:25;;;;;;;;;;;;;;;;;;5089607;28;20425;-78
2022/08/29 11:22:12;;;;;;;;;;;;;;;;;;5089730;28;19924;-77
2022/08/29 11:24:58;;;;;;;;;;;;;;;;;;5071599;28;20332;-77
2022/08/29 11:27:45;;;;;;;;;;;;;;;;;;5089182;28;19920;-76
2022/08/29 11:30:31;;;;;;;;;;;;;;;;;;5088891;28;19920;-76
2022/08/29 11:33:18;;;;;;;;;;;;;;;;;;5082250;28;20323;-76
2022/08/29 11:36:04;;;;;;;;;;;;;;;;;;5087471;28;19920;-76
2022/08/29 11:38:50;;;;;;;;;;;;;;;;;;5088773;28;19942;-76
2022/08/29 11:41:37;;;;;;;;;;;;;;;;;;5086450;28;19920;-77
2022/08/29 11:44:23;;;;;;;;;;;;;;;;;;5091641;28;19916;-78
2022/08/29 11:47:10;;;;;;;;;;;;;;;;;;5090789;28;19916;-77
2022/08/29 11:49:56;;;;;;;;;;;;;;;;;;5086610;28;19920;-77
2022/08/29 11:52:43;;;;;;;;;;;;;;;;;;5090516;28;19912;-77
2022/08/29 11:55:30;;;;;;;;;;;;;;;;;;5090604;28;20276;-79
2022/08/29 11:58:16;;;;;;;;;;;;;;;;;;5090753;28;19913;-77
2022/08/29 12:01:03;;;;;;;;;;;;;;;;;;5090388;28;20356;-74
2022/08/29 12:03:49;;;;;;;;;;;;;;;;;;5085768;28;19915;-75
2022/08/29 12:06:36;;;;;;;;;;;;;;;;;;5076642;28;19920;-77
2022/08/29 12:09:23;;;;;;;;;;;;;;;;;;5095882;28;19912;-77
2022/08/29 12:12:11;;;;;;;;;;;;;;;;;;5087790;28;20001;-76
2022/08/29 12:14:57;;;;;;;;;;;;;;;;;;5087196;28;19920;-77
2022/08/29 12:17:44;;;;;;;;;;;;;;;;;;5092978;28;20411;-75
2022/08/29 12:20:32;;;;;;;;;;;;;;;;;;5086238;28;19922;-75
2022/08/29 12:23:18;;;;;;;;;;;;;;;;;;5080381;28;19919;-78
2022/08/29 12:26:05;;;;;;;;;;;;;;;;;;5092609;28;20497;-76
2022/08/29 12:28:51;;;;;;;;;;;;;;;;;;5099735;28;19908;-76
2022/08/29 12:31:39;;;;;;;;;;;;;;;;;;5083832;28;19913;-77
2022/08/29 12:34:26;;;;;;;;;;;;;;;;;;5096301;28;20359;-75
2022/08/29 12:37:12;;;;;;;;;;;;;;;;;;5087470;28;19926;-75
2022/08/29 12:39:59;;;;;;;;;;;;;;;;;;5089524;28;19919;-76
2022/08/29 12:42:45;;;;;;;;;;;;;;;;;;5089805;28;20454;-76
2022/08/29 12:45:35;;;;;;;;;;;;;;;;;;5098998;27;19992;-77
2022/08/29 12:48:21;;;;;;;;;;;;;;;;;;5086233;28;19918;-77
2022/08/29 12:51:08;;;;;;;;;;;;;;;;;;5087194;28;19915;-77
2022/08/29 12:53:55;;;;;;;;;;;;;;;;;;5086389;28;19909;-76
2022/08/29 12:56:41;;;;;;;;;;;;;;;;;;5090421;28;19912;-76
2022/08/29 12:59:28;;;;;;;;;;;;;;;;;;5076043;28;19912;-76
2022/08/29 13:02:14;;;;;;;;;;;;;;;;;;5099800;28;19916;-76
2022/08/29 13:05:01;;;;;;;;;;;;;;;;;;5090960;28;19912;-75
2022/08/29 13:07:47;;;;;;;;;;;;;;;;;;5091339;28;19930;-76
2022/08/29 13:10:34;;;;;;;;;;;;;;;;;;5100380;28;19912;-76
2022/08/29 13:13:20;;;;;;;;;;;;;;;;;;5089626;28;19915;-77
2022/08/29 13:16:07;;;;;;;;;;;;;;;;;;5095710;27;19924;-76
2022/08/29 13:18:53;;;;;;;;;;;;;;;;;;5076549;28;19918;-74
2022/08/29 13:21:40;;;;;;;;;;;;;;;;;;5092771;28;19916;-76
2022/08/29 13:24:26;;;;;;;;;;;;;;;;;;5089522;28;19912;-77
2022/08/29 13:27:13;;;;;;;;;;;;;;;;;;5090030;28;19924;-77
2022/08/29 13:30:00;;;;;;;;;;;;;;;;;;5090716;28;20398;-76
2022/08/29 13:32:46;;;;;;;;;;;;;;;;;;5090576;28;19916;-76
2022/08/29 13:35:34;;;;;;;;;;;;;;;;;;5089134;28;19914;-77
2022/08/29 13:38:22;;;;;;;;;;;;;;;;;;5083971;28;20284;-77
2022/08/29 13:41:08;;;;;;;;;;;;;;;;;;5090629;28;19908;-77
2022/08/29 13:43:54;;;;;;;;;;;;;;;;;;5092366;28;19908;-75
2022/08/29 13:46:45;;;;;;;;;;;;;;;;;;5088858;28;19926;-77
2022/08/29 13:49:32;;;;;;;;;;;;;;;;;;5064616;28;19911;-76
2022/08/29 13:52:18;;;;;;;;;;;;;;;;;;5087742;28;20280;-77
2022/08/29 13:55:05;;;;;;;;;;;;;;;;;;5082971;28;19919;-77
2022/08/29 13:57:51;;;;;;;;;;;;;;;;;;5070768;28;20497;-75
2022/08/29 14:00:38;;;;;;;;;;;;;;;;;;5081178;28;19912;-76
2022/08/29 14:03:24;;;;;;;;;;;;;;;;;;5096666;28;19908;-76
2022/08/29 14:06:12;;;;;;;;;;;;;;;;;;5090899;28;19928;-76
2022/08/29 14:08:59;;;;;;;;;;;;;;;;;;5077587;28;19908;-76
2022/08/29 14:11:45;;;;;;;;;;;;;;;;;;5070392;28;19912;-77
2022/08/29 14:14:31;;;;;;;;;;;;;;;;;;5088547;28;19917;-76
2022/08/29 14:17:18;;;;;;;;;;;;;;;;;;5085778;28;20578;-76
2022/08/29 14:20:06;;;;;;;;;;;;;;;;;;5087759;28;19912;-77
2022/08/29 14:22:52;;;;;;;;;;;;;;;;;;5093410;28;19912;-77
2022/08/29 14:25:39;;;;;;;;;;;;;;;;;;5087831;28;20368;-76
2022/08/29 14:28:25;;;;;;;;;;;;;;;;;;5087535;28;19912;-77
2022/08/29 14:31:12;;;;;;;;;;;;;;;;;;5072988;28;20579;-77
2022/08/29 14:33:58;;;;;;;;;;;;;;;;;;5084214;28;19912;-75
2022/08/29 14:36:45;;;;;;;;;;;;;;;;;;5090258;28;19958;-75
2022/08/29 14:39:31;;;;;;;;;;;;;;;;;;5096107;28;19919;-74
2022/08/29 14:42:18;;;;;;;;;;;;;;;;;;5092485;28;19912;-77
2022/08/29 14:45:04;;;;;;;;;;;;;;;;;;5099289;27;20284;-78
2022/08/29 14:47:51;;;;;;;;;;;;;;;;;;5096832;28;20391;-77
2022/08/29 14:50:37;;;;;;;;;;;;;;;;;;5088260;28;20172;-77
2022/08/29 14:53:23;;;;;;;;;;;;;;;;;;5075653;28;19923;-76
2022/08/29 14:56:10;;;;;;;;;;;;;;;;;;5094288;28;19916;-79
2022/08/29 14:58:56;;;;;;;;;;;;;;;;;;5084770;28;20497;-78
2022/08/29 15:01:43;;;;;;;;;;;;;;;;;;5091781;28;19912;-78
2022/08/29 15:04:29;;;;;;;;;;;;;;;;;;5091894;28;19915;-78
2022/08/29 15:07:16;;;;;;;;;;;;;;;;;;5085877;28;19927;-79
2022/08/29 15:10:03;;;;;;;;;;;;;;;;;;5082596;28;19916;-78
2022/08/29 15:12:49;;;;;;;;;;;;;;;;;;5085381;28;19912;-84
2022/08/29 15:15:36;;;;;;;;;;;;;;;;;;5093410;28;19924;-80
2022/08/29 15:18:23;;;;;;;;;;;;;;;;;;5092405;28;19918;-80
2022/08/29 15:21:10;;;;;;;;;;;;;;;;;;5104178;27;19922;-77
2022/08/29 15:23:56;;;;;;;;;;;;;;;;;;5094537;28;19909;-80
2022/08/29 15:26:43;;;;;;;;;;;;;;;;;;5095952;28;19924;-76
2022/08/29 15:29:30;;;;;;;;;;;;;;;;;;5098362;28;19920;-76
2022/08/29 15:32:18;;;;;;;;;;;;;;;;;;5102567;28;19912;-76
2022/08/29 15:35:04;;;;;;;;;;;;;;;;;;5089816;28;20423;-76
2022/08/29 15:37:53;;;;;;;;;;;;;;;;;;5100154;28;19916;-77
2022/08/29 15:40:39;;;;;;;;;;;;;;;;;;5087485;28;19920;-77
2022/08/29 15:43:26;;;;;;;;;;;;;;;;;;5086491;28;19909;-75
2022/08/29 15:46:13;;;;;;;;;;;;;;;;;;5076160;28;19923;-76
2022/08/29 15:48:59;;;;;;;;;;;;;;;;;;5084034;28;19916;-78
2022/08/29 15:51:46;;;;;;;;;;;;;;;;;;5085284;28;19923;-78
2022/08/29 15:54:32;;;;;;;;;;;;;;;;;;5090772;28;20400;-78
2022/08/29 15:57:19;;;;;;;;;;;;;;;;;;5089631;28;20379;-77
2022/08/29 16:00:06;;;;;;;;;;;;;;;;;;5089385;28;19924;-77
2022/08/29 16:02:52;;;;;;;;;;;;;;;;;;5088390;28;19912;-79
2022/08/29 16:05:39;;;;;;;;;;;;;;;;;;5086985;28;19912;-78
2022/08/29 16:08:26;;;;;;;;;;;;;;;;;;5094320;28;19923;-79
2022/08/29 16:11:12;;;;;;;;;;;;;;;;;;5090990;28;19919;-79
2022/08/29 16:14:02;;;;;;;;;;;;;;;;;;5090634;28;19939;-78
2022/08/29 16:16:49;;;;;;;;;;;;;;;;;;5098291;27;19924;-78
2022/08/29 16:19:36;;;;;;;;;;;;;;;;;;5078471;28;19916;-78
2022/08/29 16:22:22;;;;;;;;;;;;;;;;;;5091057;28;19908;-77
2022/08/29 16:25:09;;;;;;;;;;;;;;;;;;5099058;28;19908;-78
2022/08/29 16:27:55;;;;;;;;;;;;;;;;;;5085743;28;19920;-77
2022/08/29 16:30:42;;;;;;;;;;;;;;;;;;5088901;28;19916;-78
2022/08/29 16:33:28;;;;;;;;;;;;;;;;;;5087484;28;19923;-77
2022/08/29 16:36:15;;;;;;;;;;;;;;;;;;5101164;28;20382;-79
2022/08/29 16:39:01;;;;;;;;;;;;;;;;;;5089369;28;20372;-79
2022/08/29 16:41:48;;;;;;;;;;;;;;;;;;5098723;28;19912;-78
2022/08/29 16:44:34;;;;;;;;;;;;;;;;;;5088069;28;20358;-79
2022/08/29 16:47:21;;;;;;;;;;;;;;;;;;5091550;28;19954;-79
2022/08/29 16:50:07;;;;;;;;;;;;;;;;;;5099715;28;19912;-78
2022/08/29 16:52:54;;;;;;;;;;;;;;;;;;5082509;28;19919;-80
2022/08/29 16:55:40;;;;;;;;;;;;;;;;;;5077213;28;20537;-80
2022/08/29 17:01:32;;;;;;;;;;;;;;;;;;5087727;28;20401;-79
2022/08/29 17:04:18;;;;;;;;;;;;;;;;;;5085525;28;19916;-79
2022/08/29 17:07:05;;;;;;;;;;;;;;;;;;5096502;28;20029;-79
2022/08/29 17:18:10;;;;;;;;;;;;;;;;;;5090557;28;19923;-78
2022/08/29 17:20:58;;;;;;;;;;;;;;;;;;5088244;28;19912;-78
2022/08/29 17:23:46;;;;;;;;;;;;;;;;;;5088719;28;19908;-80
2022/08/29 17:26:32;;;;;;;;;;;;;;;;;;5088477;28;19939;-78
2022/08/29 17:29:19;;;;;;;;;;;;;;;;;;5082246;28;20253;-79
2022/08/29 17:32:05;;;;;;;;;;;;;;;;;;5089242;28;19916;-80
2022/08/29 17:34:52;;;;;;;;;;;;;;;;;;5088444;28;20244;-79
2022/08/29 17:37:38;;;;;;;;;;;;;;;;;;5072241;28;19919;-79
2022/08/29 17:40:25;;;;;;;;;;;;;;;;;;5087772;28;19917;-80
2022/08/29 17:43:17;;;;;;;;;;;;;;;;;;5091453;28;19912;-80
2022/08/29 17:46:03;;;;;;;;;;;;;;;;;;5086313;28;19919;-80
2022/08/29 17:48:50;;;;;;;;;;;;;;;;;;5088652;28;19912;-80
2022/08/29 17:51:36;;;;;;;;;;;;;;;;;;5089971;28;19916;-79
2022/08/29 17:54:23;;;;;;;;;;;;;;;;;;5101006;28;20364;-80
2022/08/29 17:57:09;;;;;;;;;;;;;;;;;;5089338;28;19918;-80
2022/08/29 17:59:56;;;;;;;;;;;;;;;;;;5092656;28;19916;-79
2022/08/29 18:02:42;;;;;;;;;;;;;;;;;;5102898;27;19912;-80
2022/08/29 18:05:29;;;;;;;;;;;;;;;;;;5075163;28;19918;-81
2022/08/29 18:08:15;;;;;;;;;;;;;;;;;;5084198;28;19931;-80
2022/08/29 18:11:02;;;;;;;;;;;;;;;;;;5072923;28;19930;-80
2022/08/29 18:13:48;;;;;;;;;;;;;;;;;;5071948;28;19916;-81
2022/08/29 18:16:34;;;;;;;;;;;;;;;;;;5087640;28;19928;-80
2022/08/29 18:19:21;;;;;;;;;;;;;;;;;;5085578;28;19913;-81
2022/08/29 18:22:07;;;;;;;;;;;;;;;;;;5087772;28;19908;-82
2022/08/29 18:24:55;;;;;;;;;;;;;;;;;;5087993;28;19908;-81
2022/08/29 18:27:41;;;;;;;;;;;;;;;;;;5091628;28;19920;-79
2022/08/29 18:30:28;;;;;;;;;;;;;;;;;;5094843;28;19919;-82
2022/08/29 18:33:14;;;;;;;;;;;;;;;;;;5089447;28;19908;-80
2022/08/29 18:36:01;;;;;;;;;;;;;;;;;;5091531;28;19908;-79
2022/08/29 18:38:49;;;;;;;;;;;;;;;;;;5087306;28;19947;-80
2022/08/29 18:41:35;;;;;;;;;;;;;;;;;;5100552;28;19908;-83
2022/08/29 18:44:21;;;;;;;;;;;;;;;;;;5102521;28;19918;-85
2022/08/29 18:47:08;;;;;;;;;;;;;;;;;;5098911;28;19925;-86
2022/08/29 18:53:01;;;;;;;;;;;;;;;;;;5095701;28;19927;-84
2022/08/29 18:55:47;;;;;;;;;;;;;;;;;;5093163;28;19922;-83
2022/08/29 18:58:34;;;;;;;;;;;;;;;;;;5094608;28;19912;-85
2022/08/29 19:01:22;;;;;;;;;;;;;;;;;;5091329;28;19908;-83
2022/08/29 19:04:09;;;;;;;;;;;;;;;;;;5088726;28;19919;-81
2022/08/29 19:06:55;;;;;;;;;;;;;;;;;;5094421;28;19927;-82
2022/08/29 19:09:42;;;;;;;;;;;;;;;;;;5091660;28;20364;-86
2022/08/29 19:12:28;;;;;;;;;;;;;;;;;;5088649;28;19923;-84
2022/08/29 19:15:15;;;;;;;;;;;;;;;;;;5085899;28;19920;-85